createdAt,value
2023-02-25T00:03:35.331Z,3.10
2023-02-25T00:31:13.517Z,2.40
2023-02-25T00:36:42.691Z,2.30
2023-02-25T00:42:19.439Z,2.30
2023-02-25T00:47:49.597Z,2.20
2023-02-25T01:15:20.266Z,1.60
2023-02-25T01:20:48.984Z,1.50
2023-02-25T01:26:17.842Z,2.10
2023-02-25T01:31:57.542Z,1.40
2023-02-25T01:37:25.418Z,1.30
2023-02-25T01:48:28.084Z,1.10
2023-02-25T01:53:59.652Z,1.20
2023-02-25T01:59:30.130Z,1.90
2023-02-25T02:05:04.986Z,0.90
2023-02-25T02:10:33.853Z,1.10
2023-02-25T02:16:55.973Z,1.10
2023-02-25T02:23:49.941Z,1.00
2023-02-25T02:29:45.405Z,1.50
2023-02-25T02:35:53.672Z,1.10
2023-02-25T02:41:50.805Z,1.10
2023-02-25T02:47:38.053Z,0.90
2023-02-25T02:53:18.741Z,1.70
2023-02-25T02:59:08.025Z,1.00
2023-02-25T03:04:39.048Z,1.00
2023-02-25T03:10:10.626Z,1.10
2023-02-25T03:15:43.026Z,1.20
2023-02-25T03:21:20.431Z,1.00
2023-02-25T03:26:50.870Z,1.00
2023-02-25T03:37:56.653Z,1.00
2023-02-25T03:43:36.184Z,1.00
2023-02-25T03:49:07.600Z,1.00
2023-02-25T03:54:36.695Z,1.00
2023-02-25T04:00:19.415Z,1.10
2023-02-25T04:33:12.096Z,1.10
2023-02-25T04:38:39.895Z,1.10
2023-02-25T04:44:08.795Z,1.10
2023-02-25T04:49:44.749Z,0.90
2023-02-25T05:06:16.930Z,1.20
2023-02-25T05:11:45.661Z,1.20
2023-02-25T05:22:43.775Z,1.10
2023-02-25T05:28:12.265Z,1.30
2023-02-25T05:33:41.022Z,1.20
2023-02-25T05:44:39.837Z,1.40
2023-02-25T05:55:42.127Z,1.40
2023-02-25T06:01:14.121Z,1.40
2023-02-25T06:23:06.517Z,1.50
2023-02-25T06:55:59.065Z,1.70
2023-02-25T07:06:56.358Z,1.80
2023-02-25T07:28:50.090Z,1.90
2023-02-25T07:39:47.828Z,2.10
2023-02-25T07:45:17.953Z,2.00
2023-02-25T07:56:19.891Z,2.30
2023-02-25T08:01:47.806Z,2.30
2023-02-25T08:34:36.710Z,2.60
2023-02-25T08:40:10.009Z,2.90
2023-02-25T08:45:39.139Z,3.00
2023-02-25T08:51:09.445Z,2.90
2023-02-25T08:56:38.408Z,3.20
2023-02-25T09:02:07.984Z,3.20
2023-02-25T09:13:04.562Z,3.50
2023-02-25T09:40:32.268Z,3.50
2023-02-25T09:46:18.895Z,3.40
2023-02-25T09:52:01.624Z,3.60
2023-02-25T10:03:16.916Z,3.40
2023-02-25T10:37:00.320Z,3.60
2023-02-25T10:42:31.881Z,3.50
2023-02-25T10:48:22.294Z,3.80
2023-02-25T11:05:01.830Z,4.20
2023-02-25T11:16:06.925Z,4.30
2023-02-25T11:21:38.201Z,4.50
2023-02-25T11:27:19.125Z,4.70
2023-02-25T11:32:54.752Z,4.70
2023-02-25T11:38:28.251Z,4.80
2023-02-25T11:43:56.158Z,4.50
2023-02-25T11:49:49.957Z,4.80
2023-02-25T12:01:08.477Z,4.40
2023-02-25T12:07:27.489Z,5.00
2023-02-25T12:13:43.773Z,5.20
2023-02-25T12:19:51.660Z,5.40
2023-02-25T12:25:48.355Z,5.70
2023-02-25T12:32:18.663Z,6.20
2023-02-25T12:38:35.304Z,6.70
2023-02-25T12:44:34.398Z,6.70
2023-02-25T12:50:36.005Z,6.30
2023-02-25T12:56:53.331Z,5.80
2023-02-25T13:02:36.308Z,5.40
2023-02-25T13:08:13.078Z,5.60
2023-02-25T13:14:09.052Z,5.60
2023-02-25T13:20:06.270Z,5.40
2023-02-25T13:26:12.465Z,5.80
2023-02-25T13:38:38.307Z,6.40
2023-02-25T13:44:09.151Z,7.10
2023-02-25T13:56:17.561Z,7.60
2023-02-25T14:02:26.486Z,9.00
2023-02-25T14:08:54.490Z,7.60
2023-02-25T14:14:48.534Z,6.40
2023-02-25T14:21:03.635Z,5.70
2023-02-25T14:26:55.053Z,5.40
2023-02-25T14:33:12.441Z,5.10
2023-02-25T14:44:42.071Z,4.60
2023-02-25T14:50:27.602Z,4.30
2023-02-25T15:02:16.590Z,4.20
2023-02-25T15:08:21.234Z,4.20
2023-02-25T15:14:14.830Z,4.10
2023-02-25T15:20:04.382Z,4.10
2023-02-25T15:26:04.958Z,4.00
2023-02-25T15:31:39.093Z,4.00
2023-02-25T15:37:37.219Z,3.70
2023-02-25T15:43:10.827Z,3.80
2023-02-25T15:49:03.030Z,3.80
2023-02-25T16:05:34.269Z,3.80
2023-02-25T16:11:05.822Z,3.80
2023-02-25T16:16:35.696Z,3.70
2023-02-25T16:22:09.330Z,3.70
2023-02-25T16:28:01.792Z,3.70
2023-02-25T16:39:06.964Z,3.60
2023-02-25T16:44:38.956Z,3.60
2023-02-25T16:50:19.144Z,3.60
2023-02-25T16:55:48.376Z,3.50
2023-02-25T17:01:23.321Z,3.50
2023-02-25T17:07:12.227Z,3.40
2023-02-25T17:12:45.870Z,3.40
2023-02-25T17:18:47.248Z,3.30
2023-02-25T17:24:21.341Z,3.10
2023-02-25T17:46:36.228Z,3.20
2023-02-25T17:52:19.656Z,3.20
2023-02-25T18:03:26.302Z,2.60
2023-02-25T18:08:55.445Z,2.00
2023-02-25T18:15:02.213Z,1.50
2023-02-25T18:20:36.678Z,1.10
2023-02-25T18:26:20.996Z,0.70
2023-02-25T18:31:48.904Z,0.40
2023-02-25T18:37:20.445Z,0.30
2023-02-25T18:42:48.282Z,-0.40
2023-02-25T19:04:44.965Z,-0.20
2023-02-25T19:10:34.444Z,-0.10
2023-02-25T19:27:00.650Z,-0.10
2023-02-25T19:32:28.594Z,-0.20
2023-02-25T19:54:23.008Z,0.10
2023-02-25T20:38:28.772Z,0.30
2023-02-25T20:49:27.084Z,0.20
2023-02-25T20:54:56.156Z,0.20
2023-02-25T21:00:24.217Z,0.20
2023-02-25T21:05:52.447Z,0.10
2023-02-25T21:11:26.487Z,-0.10
2023-02-25T21:16:55.026Z,-0.20
2023-02-25T21:27:51.216Z,-0.40
2023-02-25T21:33:21.242Z,-0.40
2023-02-25T21:38:51.286Z,-0.40
2023-02-25T22:33:46.852Z,-0.60
2023-02-25T23:34:12.030Z,-1.10
2023-02-25T23:45:10.792Z,-1.10
2023-02-25T23:50:38.805Z,-1.10
2023-02-25T23:56:10.228Z,-1.20
